Terminal Aerodrome Forecast
Issued by NWS Sterling, VA

Current Version | Previous Version | Text Only | Print | Product List | Glossary Off
Versions: 1 2 3 4 5 6 7 8 9 10 11 12 13 14 15 16 17 18 19 20 21 22 23 24 25 26 27 28

850
FTUS41 KLWX 272340
TAFDCA
TAF
KDCA 272340Z 2800/2824 12004KT P6SM BKN060
     FM280300 19004KT P6SM BKN060
     FM280800 20004KT 4SM BR OVC070
     FM281200 VRB03KT 2SM BR BKN035
     FM281500 21006KT P6SM BKN015
     FM281600 20006KT P6SM BKN020
     FM281800 20006KT P6SM -SHRA BKN040
     FM282200 24006KT P6SM -SHRA BKN040=

USA.gov is the U.S. government's official web portal to all federal, state and local government web resources and services.